WZZ105 ENBR-EDDH
Flight info
| Callsign | WZZ105 |
|---|---|
| Flight time | N/A |
| Altitude | 37000 |
| Route | TUXIL DCT ZOL DCT RAMUD DCT ALASA M852 EKERN T905 BOGMU BOGMU3N |
| Aircraft | A21N/M-SDE3FGHIRWY/LB1 |
Departure
| Time | 2026-05-06 17:53 |
|---|---|
| Airport | Bergen Airport, Flesland (ENBR) |
Arrival
| Time | N/A |
|---|---|
| Airport | Hamburg Helmut Schmidt Airport (EDDH) |
| Time | Latitude | Longitude | Altitude | Speed | Heading |
|---|---|---|---|---|---|
| 2026-05-06 16:49 | 60.28989 | 5.22811 | 180 ft | 0 kts | 210° |
| 2026-05-06 17:41 | 60.29001 | 5.22826 | 181 ft | 2 kts | 215° |
| 2026-05-06 17:41 | 60.29013 | 5.22843 | 181 ft | 2 kts | 213° |
| 2026-05-06 17:41 | 60.29025 | 5.22858 | 182 ft | 1 kts | 214° |
| 2026-05-06 17:42 | 60.29024 | 5.22857 | 182 ft | 2 kts | 213° |
| 2026-05-06 17:42 | 60.29016 | 5.22817 | 181 ft | 3 kts | 274° |
| 2026-05-06 17:42 | 60.29022 | 5.22787 | 180 ft | 0 kts | 295° |
| 2026-05-06 17:47 | 60.29027 | 5.22766 | 179 ft | 3 kts | 295° |
| 2026-05-06 17:47 | 60.29042 | 5.22694 | 177 ft | 0 kts | 283° |
| 2026-05-06 17:47 | 60.29042 | 5.22691 | 177 ft | 1 kts | 282° |
| 2026-05-06 17:47 | 60.29044 | 5.22634 | 176 ft | 9 kts | 273° |
| 2026-05-06 17:48 | 60.29036 | 5.22524 | 174 ft | 11 kts | 259° |
| 2026-05-06 17:48 | 60.29114 | 5.22215 | 165 ft | 12 kts | 343° |
| 2026-05-06 17:48 | 60.29228 | 5.22175 | 162 ft | 19 kts | 351° |
| 2026-05-06 17:49 | 60.29376 | 5.22125 | 158 ft | 23 kts | 350° |
| 2026-05-06 17:49 | 60.29536 | 5.22072 | 154 ft | 25 kts | 350° |
| 2026-05-06 17:49 | 60.29685 | 5.22021 | 150 ft | 16 kts | 350° |
| 2026-05-06 17:49 | 60.29796 | 5.21983 | 152 ft | 16 kts | 350° |
| 2026-05-06 17:50 | 60.29919 | 5.21940 | 153 ft | 20 kts | 350° |
| 2026-05-06 17:50 | 60.30072 | 5.21890 | 156 ft | 23 kts | 351° |
| 2026-05-06 17:50 | 60.30227 | 5.21841 | 162 ft | 22 kts | 350° |
| 2026-05-06 17:50 | 60.30377 | 5.21788 | 168 ft | 22 kts | 350° |
| 2026-05-06 17:51 | 60.30524 | 5.21738 | 175 ft | 21 kts | 350° |
| 2026-05-06 17:51 | 60.30625 | 5.21696 | 181 ft | 9 kts | 337° |
| 2026-05-06 17:51 | 60.30663 | 5.21594 | 180 ft | 12 kts | 276° |
| 2026-05-06 17:51 | 60.30637 | 5.21425 | 171 ft | 10 kts | 242° |
| 2026-05-06 17:52 | 60.30577 | 5.21399 | 167 ft | 7 kts | 171° |
| 2026-05-06 17:52 | 60.30470 | 5.21434 | 166 ft | 37 kts | 170° |
| 2026-05-06 17:52 | 60.29987 | 5.21588 | 151 ft | 107 kts | 169° |
| 2026-05-06 17:52 | 60.29087 | 5.21892 | 177 ft | 159 kts | 171° |
| 2026-05-06 17:53 | 60.27976 | 5.22240 | 723 ft | 165 kts | 171° |
| 2026-05-06 17:53 | 60.26833 | 5.22625 | 1365 ft | 173 kts | 170° |
| 2026-05-06 17:53 | 60.25666 | 5.23073 | 2110 ft | 173 kts | 169° |
| 2026-05-06 17:53 | 60.24463 | 5.23512 | 2588 ft | 182 kts | 171° |
| 2026-05-06 17:54 | 60.23177 | 5.23954 | 3029 ft | 194 kts | 171° |
| 2026-05-06 17:54 | 60.21826 | 5.24402 | 3564 ft | 202 kts | 172° |
| 2026-05-06 17:54 | 60.20432 | 5.24896 | 4125 ft | 209 kts | 171° |
| 2026-05-06 17:54 | 60.18959 | 5.25426 | 4572 ft | 225 kts | 171° |
| 2026-05-06 17:55 | 60.17322 | 5.25940 | 4978 ft | 245 kts | 173° |
| 2026-05-06 17:55 | 60.15611 | 5.26405 | 5496 ft | 259 kts | 173° |
| 2026-05-06 17:55 | 60.13761 | 5.26987 | 5899 ft | 272 kts | 171° |
| 2026-05-06 17:55 | 60.11879 | 5.27627 | 5970 ft | 273 kts | 171° |
| 2026-05-06 17:56 | 60.10007 | 5.28266 | 5971 ft | 273 kts | 171° |
| 2026-05-06 17:56 | 60.08118 | 5.28862 | 6031 ft | 277 kts | 173° |
| 2026-05-06 17:56 | 60.06189 | 5.29383 | 6707 ft | 282 kts | 173° |
| 2026-05-06 17:56 | 60.04273 | 5.29887 | 7698 ft | 280 kts | 174° |
| 2026-05-06 17:57 | 60.02335 | 5.30398 | 8511 ft | 284 kts | 174° |
| 2026-05-06 17:57 | 60.00373 | 5.30916 | 9281 ft | 289 kts | 174° |
| 2026-05-06 17:57 | 59.98396 | 5.31442 | 10038 ft | 293 kts | 174° |
| 2026-05-06 17:57 | 59.96356 | 5.31986 | 10647 ft | 302 kts | 175° |
| 2026-05-06 17:58 | 59.94208 | 5.32557 | 11123 ft | 315 kts | 175° |
| 2026-05-06 17:58 | 59.92047 | 5.33137 | 11819 ft | 319 kts | 176° |
| 2026-05-06 17:58 | 59.89858 | 5.33726 | 12546 ft | 322 kts | 176° |
| 2026-05-06 17:58 | 59.87633 | 5.34321 | 13275 ft | 324 kts | 178° |
| 2026-05-06 17:59 | 59.85379 | 5.34918 | 13987 ft | 327 kts | 178° |
| 2026-05-06 17:59 | 59.83107 | 5.35518 | 14684 ft | 329 kts | 179° |
| 2026-05-06 17:59 | 59.80853 | 5.36110 | 15351 ft | 332 kts | 179° |
| 2026-05-06 17:59 | 59.78559 | 5.36568 | 15993 ft | 333 kts | 182° |
| 2026-05-06 18:00 | 59.76249 | 5.36949 | 16614 ft | 336 kts | 182° |
| 2026-05-06 18:00 | 59.73896 | 5.37333 | 16988 ft | 338 kts | 182° |
| 2026-05-06 18:00 | 59.71553 | 5.37716 | 17399 ft | 343 kts | 182° |
| 2026-05-06 18:00 | 59.69172 | 5.38111 | 18054 ft | 344 kts | 182° |
| 2026-05-06 18:01 | 59.66788 | 5.38506 | 18665 ft | 346 kts | 183° |
| 2026-05-06 18:01 | 59.64392 | 5.38938 | 19229 ft | 350 kts | 181° |
| 2026-05-06 18:01 | 59.61998 | 5.39535 | 19788 ft | 353 kts | 181° |
| 2026-05-06 18:01 | 59.59557 | 5.40153 | 20368 ft | 355 kts | 181° |
| 2026-05-06 18:02 | 59.57079 | 5.40782 | 20936 ft | 357 kts | 181° |
| 2026-05-06 18:02 | 59.54620 | 5.41407 | 21466 ft | 360 kts | 181° |
| 2026-05-06 18:02 | 59.52160 | 5.42028 | 21973 ft | 362 kts | 181° |
| 2026-05-06 18:02 | 59.49647 | 5.42664 | 22473 ft | 365 kts | 181° |
| 2026-05-06 18:03 | 59.47138 | 5.43294 | 22946 ft | 368 kts | 181° |
| 2026-05-06 18:03 | 59.44582 | 5.43937 | 23404 ft | 371 kts | 181° |
| 2026-05-06 18:03 | 59.42037 | 5.44574 | 23848 ft | 374 kts | 181° |
| 2026-05-06 18:03 | 59.39446 | 5.45314 | 24278 ft | 380 kts | 179° |
| 2026-05-06 18:04 | 59.36825 | 5.46267 | 24715 ft | 383 kts | 178° |
| 2026-05-06 18:04 | 59.34197 | 5.47225 | 25172 ft | 385 kts | 178° |
| 2026-05-06 18:04 | 59.31582 | 5.48177 | 25616 ft | 387 kts | 178° |
| 2026-05-06 18:04 | 59.28983 | 5.49123 | 26030 ft | 388 kts | 178° |
| 2026-05-06 18:05 | 59.26355 | 5.50079 | 26458 ft | 389 kts | 178° |
| 2026-05-06 18:05 | 59.23674 | 5.51050 | 26857 ft | 391 kts | 178° |
| 2026-05-06 18:05 | 59.21019 | 5.52012 | 27260 ft | 392 kts | 178° |
| 2026-05-06 18:05 | 59.18351 | 5.52978 | 27655 ft | 393 kts | 178° |
| 2026-05-06 18:06 | 59.15655 | 5.53950 | 28042 ft | 395 kts | 178° |
| 2026-05-06 18:06 | 59.12955 | 5.54923 | 28444 ft | 396 kts | 178° |
| 2026-05-06 18:06 | 59.10264 | 5.55893 | 28851 ft | 397 kts | 178° |
| 2026-05-06 18:06 | 59.07522 | 5.56879 | 29249 ft | 398 kts | 178° |
| 2026-05-06 18:07 | 59.04821 | 5.57848 | 29605 ft | 400 kts | 178° |
| 2026-05-06 18:07 | 59.02081 | 5.58832 | 29963 ft | 401 kts | 178° |
| 2026-05-06 18:07 | 58.99430 | 5.59779 | 30319 ft | 402 kts | 178° |
| 2026-05-06 18:07 | 58.96746 | 5.60738 | 30685 ft | 403 kts | 178° |
| 2026-05-06 18:08 | 58.94013 | 5.61763 | 31047 ft | 406 kts | 176° |
| 2026-05-06 18:08 | 58.91307 | 5.63056 | 31357 ft | 410 kts | 172° |
| 2026-05-06 18:08 | 58.88578 | 5.64708 | 31626 ft | 416 kts | 168° |
| 2026-05-06 18:08 | 58.85905 | 5.66689 | 31843 ft | 423 kts | 166° |
| 2026-05-06 18:09 | 58.83306 | 5.68989 | 32057 ft | 428 kts | 161° |
| 2026-05-06 18:09 | 58.80708 | 5.71686 | 32253 ft | 435 kts | 158° |
| 2026-05-06 18:09 | 58.78154 | 5.74614 | 32454 ft | 438 kts | 157° |
| 2026-05-06 18:09 | 58.75600 | 5.77546 | 32646 ft | 440 kts | 156° |
| 2026-05-06 18:10 | 58.73019 | 5.80498 | 32826 ft | 442 kts | 156° |
| 2026-05-06 18:10 | 58.70394 | 5.83490 | 33015 ft | 445 kts | 156° |
| 2026-05-06 18:10 | 58.67760 | 5.86481 | 33207 ft | 446 kts | 156° |
| 2026-05-06 18:10 | 58.65126 | 5.89468 | 33412 ft | 448 kts | 156° |
| 2026-05-06 18:11 | 58.62457 | 5.92488 | 33614 ft | 450 kts | 156° |
| 2026-05-06 18:11 | 58.59803 | 5.95485 | 33801 ft | 452 kts | 156° |
| 2026-05-06 18:11 | 58.57093 | 5.98540 | 34079 ft | 451 kts | 155° |
| 2026-05-06 18:11 | 58.54397 | 6.01571 | 34349 ft | 451 kts | 155° |
| 2026-05-06 18:12 | 58.51704 | 6.04595 | 34597 ft | 450 kts | 155° |
| 2026-05-06 18:12 | 58.49024 | 6.07600 | 34873 ft | 449 kts | 155° |
| 2026-05-06 18:12 | 58.46310 | 6.10634 | 35074 ft | 449 kts | 155° |
| 2026-05-06 18:12 | 58.43642 | 6.13612 | 35287 ft | 449 kts | 155° |
| 2026-05-06 18:13 | 58.40962 | 6.16596 | 35467 ft | 451 kts | 155° |
| 2026-05-06 18:13 | 58.38227 | 6.19636 | 35655 ft | 451 kts | 155° |
| 2026-05-06 18:13 | 58.35558 | 6.22600 | 35836 ft | 452 kts | 155° |
| 2026-05-06 18:13 | 58.32827 | 6.25626 | 36024 ft | 452 kts | 155° |
| 2026-05-06 18:14 | 58.30112 | 6.28629 | 36216 ft | 453 kts | 155° |
| 2026-05-06 18:14 | 58.27419 | 6.31602 | 36359 ft | 454 kts | 155° |
| 2026-05-06 18:14 | 58.24698 | 6.34601 | 36526 ft | 455 kts | 155° |
| 2026-05-06 18:14 | 58.21944 | 6.37630 | 36672 ft | 456 kts | 154° |
| 2026-05-06 18:15 | 58.19194 | 6.40648 | 36830 ft | 456 kts | 154° |
| 2026-05-06 18:15 | 58.16464 | 6.43642 | 36948 ft | 458 kts | 154° |
| 2026-05-06 18:15 | 58.10979 | 6.49642 | 36975 ft | 459 kts | 154° |
| 2026-05-06 18:16 | 58.05430 | 6.55688 | 36977 ft | 458 kts | 154° |
| 2026-05-06 18:16 | 57.99918 | 6.61671 | 36978 ft | 457 kts | 154° |
| 2026-05-06 18:17 | 57.94451 | 6.67586 | 36965 ft | 457 kts | 155° |
| 2026-05-06 18:17 | 57.89077 | 6.73374 | 36966 ft | 457 kts | 155° |
| 2026-05-06 18:18 | 57.83695 | 6.79154 | 36963 ft | 457 kts | 155° |
| 2026-05-06 18:18 | 57.78192 | 6.85045 | 36965 ft | 456 kts | 155° |
| 2026-05-06 18:19 | 57.72703 | 6.90900 | 36963 ft | 455 kts | 155° |
| 2026-05-06 18:19 | 57.67214 | 6.96732 | 36960 ft | 455 kts | 155° |
| 2026-05-06 18:20 | 57.61757 | 7.02512 | 36960 ft | 455 kts | 155° |
| 2026-05-06 18:20 | 57.56244 | 7.08330 | 36962 ft | 454 kts | 155° |
| 2026-05-06 18:21 | 57.50763 | 7.14093 | 36967 ft | 453 kts | 155° |
| 2026-05-06 18:21 | 57.45308 | 7.19808 | 36967 ft | 454 kts | 155° |
| 2026-05-06 18:22 | 57.39813 | 7.25547 | 36966 ft | 454 kts | 155° |
| 2026-05-06 18:22 | 57.34581 | 7.31181 | 38304 ft | 408 kts | 153° |
| 2026-05-06 18:23 | 57.32158 | 7.33867 | 38666 ft | 404 kts | 153° |
| 2026-05-06 18:23 | 57.29736 | 7.36546 | 38634 ft | 408 kts | 153° |
| 2026-05-06 18:23 | 57.27289 | 7.39249 | 38275 ft | 416 kts | 153° |
| 2026-05-06 18:23 | 57.24785 | 7.42011 | 37726 ft | 430 kts | 153° |
| 2026-05-06 18:24 | 57.22168 | 7.44895 | 37322 ft | 447 kts | 153° |
| 2026-05-06 18:24 | 57.19484 | 7.47860 | 37064 ft | 452 kts | 153° |
| 2026-05-06 18:24 | 57.14091 | 7.53844 | 36969 ft | 452 kts | 153° |
| 2026-05-06 18:25 | 57.08559 | 7.59055 | 36974 ft | 445 kts | 163° |
| 2026-05-06 18:25 | 57.02939 | 7.63989 | 36974 ft | 451 kts | 154° |
| 2026-05-06 18:26 | 56.97568 | 7.69835 | 36977 ft | 452 kts | 154° |
| 2026-05-06 18:26 | 56.92222 | 7.75771 | 36976 ft | 451 kts | 154° |
| 2026-05-06 18:27 | 56.86869 | 7.81712 | 36972 ft | 451 kts | 154° |
| 2026-05-06 18:27 | 56.83314 | 7.85643 | 36983 ft | 451 kts | 154° |
| 2026-05-06 18:28 | 56.76199 | 7.93491 | 36980 ft | 450 kts | 154° |
| 2026-05-06 18:28 | 56.70811 | 7.99411 | 36973 ft | 450 kts | 154° |
| 2026-05-06 18:29 | 56.65437 | 8.05294 | 36986 ft | 450 kts | 153° |
| 2026-05-06 18:29 | 56.60075 | 8.11147 | 36991 ft | 450 kts | 153° |
| 2026-05-06 18:30 | 56.54743 | 8.16946 | 36993 ft | 449 kts | 153° |
| 2026-05-06 18:30 | 56.49376 | 8.22763 | 36986 ft | 449 kts | 153° |
| 2026-05-06 18:31 | 56.44025 | 8.28545 | 36981 ft | 449 kts | 153° |
| 2026-05-06 18:31 | 56.38709 | 8.34269 | 36988 ft | 449 kts | 153° |
| 2026-05-06 18:32 | 56.33352 | 8.40017 | 36975 ft | 449 kts | 153° |
| 2026-05-06 18:32 | 56.28097 | 8.45639 | 36983 ft | 449 kts | 153° |
| 2026-05-06 18:33 | 56.22769 | 8.51321 | 36974 ft | 448 kts | 153° |
| 2026-05-06 18:33 | 56.17433 | 8.56991 | 36974 ft | 447 kts | 153° |
| 2026-05-06 18:34 | 56.12072 | 8.62672 | 36977 ft | 447 kts | 153° |
| 2026-05-06 18:34 | 56.06769 | 8.68269 | 36967 ft | 447 kts | 154° |
| 2026-05-06 18:35 | 56.01423 | 8.73897 | 36967 ft | 448 kts | 154° |
| 2026-05-06 18:35 | 55.96111 | 8.79470 | 36962 ft | 448 kts | 154° |